createdAt,value
2018-12-11T00:00:17.650Z,94.46
2018-12-11T00:02:57.371Z,94.02
2018-12-11T00:05:31.955Z,94.18
2018-12-11T00:08:04.395Z,93.66
2018-12-11T00:10:36.298Z,93.43
2018-12-11T00:33:20.203Z,95.00
2018-12-11T00:35:56.360Z,95.35
2018-12-11T00:38:29.510Z,95.24
2018-12-11T00:41:02.181Z,94.92
2018-12-11T00:43:32.196Z,93.82
2018-12-11T00:46:05.403Z,94.23
2018-12-11T00:48:38.959Z,94.05
2018-12-11T00:51:11.279Z,93.63
2018-12-11T00:53:44.981Z,93.38
2018-12-11T00:56:17.341Z,93.29
2018-12-11T00:58:49.605Z,92.79
2018-12-11T01:01:21.858Z,92.16
2018-12-11T01:03:54.536Z,91.19
2018-12-11T01:06:31.464Z,90.77
2018-12-11T01:09:07.941Z,90.76
2018-12-11T01:11:40.715Z,91.34
2018-12-11T01:14:12.947Z,92.38
2018-12-11T01:16:45.213Z,92.59
2018-12-11T01:19:21.546Z,92.93
2018-12-11T01:21:57.890Z,93.35
2018-12-11T01:24:34.097Z,93.25
2018-12-11T01:27:06.494Z,93.23
2018-12-11T01:29:39.421Z,93.84
2018-12-11T01:32:11.423Z,94.39
2018-12-11T01:37:15.736Z,93.60
2018-12-11T01:39:48.136Z,93.84
2018-12-11T01:42:20.371Z,94.75
2018-12-11T01:44:56.685Z,95.33
2018-12-11T01:47:32.738Z,95.39
2018-12-11T01:50:09.126Z,95.79
2018-12-11T01:52:41.478Z,95.47
2018-12-11T01:55:17.642Z,95.30
2018-12-11T01:57:50.674Z,95.35
2018-12-11T02:00:24.000Z,95.33
2018-12-11T02:03:00.213Z,95.46
2018-12-11T02:05:36.305Z,94.90
2018-12-11T02:08:12.576Z,94.34
2018-12-11T02:10:48.878Z,93.83
2018-12-11T02:13:19.167Z,93.99
2018-12-11T02:15:51.397Z,94.05
2018-12-11T02:18:23.735Z,93.57
2018-12-11T02:20:53.484Z,93.26
2018-12-11T02:23:26.385Z,92.30
2018-12-11T02:25:59.212Z,92.26
2018-12-11T02:28:35.543Z,92.74
2018-12-11T02:31:11.704Z,92.15
2018-12-11T02:33:44.280Z,91.97
2018-12-11T02:41:13.121Z,93.14
2018-12-11T02:43:45.205Z,93.33
2018-12-11T02:46:15.105Z,93.47
2018-12-11T02:48:47.876Z,93.97
2018-12-11T02:51:24.322Z,94.64
2018-12-11T02:54:00.439Z,93.76
2018-12-11T02:56:32.408Z,92.97
2018-12-11T02:59:04.582Z,93.43
2018-12-11T03:01:37.208Z,93.83
2018-12-11T03:04:06.753Z,94.27
2018-12-11T03:06:39.682Z,95.65
2018-12-11T03:09:12.667Z,94.09
2018-12-11T03:11:49.196Z,93.67
2018-12-11T03:14:21.322Z,92.91
2018-12-11T03:16:52.129Z,92.98
2018-12-11T03:19:24.677Z,92.39
2018-12-11T03:21:57.081Z,91.59
2018-12-11T03:24:29.109Z,92.48
2018-12-11T03:27:02.027Z,92.65
2018-12-11T03:29:34.050Z,93.16
2018-12-11T03:32:10.951Z,93.44
2018-12-11T03:34:44.181Z,93.33
2018-12-11T03:37:16.752Z,93.59
2018-12-11T03:39:51.321Z,91.94
2018-12-11T03:42:27.580Z,90.51
2018-12-11T03:45:01.088Z,88.84
2018-12-11T03:47:38.042Z,89.38
2018-12-11T03:50:11.972Z,87.22
2018-12-11T03:52:45.538Z,86.06
2018-12-11T03:55:25.577Z,85.88
2018-12-11T03:57:58.555Z,86.86
2018-12-11T04:00:35.748Z,86.99
2018-12-11T04:03:09.197Z,86.35
2018-12-11T04:05:46.515Z,85.53
2018-12-11T04:08:23.335Z,85.54
2018-12-11T04:10:56.637Z,89.56
2018-12-11T04:13:33.310Z,89.88
2018-12-11T04:16:06.675Z,92.12
2018-12-11T04:18:39.682Z,92.59
2018-12-11T04:21:12.916Z,93.32
2018-12-11T04:23:46.157Z,94.10
2018-12-11T04:26:18.984Z,94.40
2018-12-11T04:28:49.442Z,94.08
2018-12-11T04:31:26.183Z,93.85
2018-12-11T04:33:57.803Z,93.77
2018-12-11T04:36:31.709Z,93.69
2018-12-11T04:39:01.954Z,92.82
2018-12-11T04:41:34.097Z,92.51
2018-12-11T04:44:05.126Z,92.86
2018-12-11T04:46:34.998Z,93.77
2018-12-11T04:49:12.155Z,92.97
2018-12-11T04:51:44.407Z,94.80
2018-12-11T04:54:20.691Z,94.22
2018-12-11T04:56:59.304Z,94.75
2018-12-11T04:59:48.135Z,93.65
2018-12-11T05:02:21.040Z,93.62
2018-12-11T05:04:53.110Z,92.79
2018-12-11T05:07:25.303Z,93.77
2018-12-11T05:09:58.115Z,93.27
2018-12-11T05:12:30.624Z,93.27
2018-12-11T05:15:02.518Z,92.64
2018-12-11T05:17:34.502Z,92.45
2018-12-11T05:20:10.750Z,92.74
2018-12-11T05:22:46.945Z,92.99
2018-12-11T05:25:19.056Z,92.82
2018-12-11T05:27:50.970Z,92.92
2018-12-11T05:30:23.072Z,92.59
2018-12-11T05:32:55.070Z,92.51
2018-12-11T05:35:27.296Z,93.15
2018-12-11T05:38:03.443Z,92.19
2018-12-11T05:40:35.453Z,91.66
2018-12-11T05:43:11.560Z,92.45
2018-12-11T05:45:48.265Z,92.16
2018-12-11T05:48:24.588Z,92.53
2018-12-11T05:50:56.615Z,92.38
2018-12-11T05:53:28.810Z,92.97
2018-12-11T05:56:02.605Z,92.62
2018-12-11T05:58:38.850Z,93.66
2018-12-11T06:01:11.100Z,93.10
2018-12-11T06:03:43.126Z,92.92
2018-12-11T06:06:16.157Z,92.76
2018-12-11T06:08:48.515Z,93.65
2018-12-11T06:11:20.491Z,92.10
2018-12-11T06:13:56.564Z,91.87
2018-12-11T06:16:28.977Z,92.24
2018-12-11T06:19:01.078Z,92.63
2018-12-11T06:21:31.053Z,92.20
2018-12-11T06:24:01.560Z,92.95
2018-12-11T06:26:31.475Z,94.77
2018-12-11T06:29:01.703Z,92.66
2018-12-11T06:31:31.668Z,92.26
2018-12-11T06:34:03.942Z,92.33
2018-12-11T06:36:39.899Z,91.33
2018-12-11T06:39:15.832Z,92.05
2018-12-11T06:41:48.999Z,93.12
2018-12-11T06:44:20.967Z,92.19
2018-12-11T06:46:53.141Z,93.18
2018-12-11T06:49:25.104Z,92.72
2018-12-11T06:57:02.040Z,92.26
2018-12-11T06:59:34.187Z,92.77
2018-12-11T07:02:06.385Z,94.25
2018-12-11T07:04:36.116Z,92.77
2018-12-11T07:07:08.254Z,92.55
2018-12-11T07:09:38.452Z,91.90
2018-12-11T07:12:10.690Z,92.89
2018-12-11T07:14:42.778Z,92.24
2018-12-11T07:17:15.071Z,92.68
2018-12-11T07:19:46.876Z,92.39
2018-12-11T07:22:23.189Z,92.23
2018-12-11T07:24:59.188Z,92.36
2018-12-11T07:27:29.207Z,92.49
2018-12-11T07:30:01.263Z,92.54
2018-12-11T07:32:33.353Z,92.59
2018-12-11T07:35:05.285Z,93.22
2018-12-11T07:37:35.235Z,92.94
2018-12-11T07:40:07.327Z,92.08
2018-12-11T07:42:39.789Z,92.10
2018-12-11T07:45:12.144Z,93.31
2018-12-11T07:47:44.978Z,92.10
2018-12-11T07:50:21.170Z,92.35
2018-12-11T07:52:51.292Z,92.21
2018-12-11T07:55:24.254Z,92.29
2018-12-11T07:57:57.184Z,92.51
2018-12-11T08:00:33.243Z,92.54
2018-12-11T08:03:05.351Z,91.90
2018-12-11T08:05:37.720Z,90.15
2018-12-11T08:08:14.779Z,88.13
2018-12-11T08:10:47.928Z,87.88
2018-12-11T08:13:19.987Z,87.27
2018-12-11T08:15:56.030Z,85.91
2018-12-11T08:18:32.203Z,86.02
2018-12-11T08:21:08.441Z,86.77
2018-12-11T08:23:40.625Z,86.43
2018-12-11T08:26:12.939Z,87.74
2018-12-11T08:28:45.701Z,88.14
2018-12-11T08:31:22.204Z,88.92
2018-12-11T08:33:54.307Z,89.50
2018-12-11T08:36:30.278Z,89.55
2018-12-11T08:39:00.330Z,88.47
2018-12-11T08:41:32.247Z,88.13
2018-12-11T08:44:08.322Z,86.30
2018-12-11T08:46:40.822Z,85.50
2018-12-11T08:49:13.480Z,84.40
2018-12-11T08:51:46.234Z,84.36
2018-12-11T08:54:18.894Z,82.84
2018-12-11T08:56:51.567Z,80.91
2018-12-11T08:59:23.733Z,81.07
2018-12-11T09:01:56.352Z,81.42
2018-12-11T09:04:28.475Z,81.66
2018-12-11T09:07:00.671Z,80.78
2018-12-11T09:09:33.590Z,80.60
2018-12-11T09:12:05.876Z,80.85
2018-12-11T09:14:38.055Z,79.83
2018-12-11T09:17:10.616Z,78.94
2018-12-11T09:19:42.634Z,77.56
2018-12-11T09:22:14.873Z,76.97
2018-12-11T09:24:51.365Z,77.35
2018-12-11T09:27:23.831Z,76.22
2018-12-11T09:29:55.980Z,75.22
2018-12-11T09:32:28.989Z,74.82
2018-12-11T09:35:01.212Z,74.28
2018-12-11T09:37:33.711Z,74.50
2018-12-11T09:40:06.144Z,73.52
2018-12-11T09:42:39.070Z,71.90
2018-12-11T09:45:11.206Z,70.81
2018-12-11T09:47:43.726Z,69.01
2018-12-11T09:50:20.531Z,68.00
2018-12-11T09:52:51.592Z,67.88
2018-12-11T09:55:24.910Z,68.11
2018-12-11T10:00:31.779Z,68.24
2018-12-11T10:03:04.680Z,68.50
2018-12-11T10:05:37.312Z,67.36
2018-12-11T10:08:09.528Z,69.18
2018-12-11T10:10:42.493Z,68.09
2018-12-11T10:13:14.681Z,68.80
2018-12-11T10:15:51.001Z,67.50
2018-12-11T10:18:21.238Z,66.00
2018-12-11T10:20:57.351Z,66.73
2018-12-11T10:23:31.938Z,66.68
2018-12-11T10:26:09.050Z,66.74
2018-12-11T10:28:39.841Z,65.61
2018-12-11T10:31:12.781Z,65.27
2018-12-11T10:33:45.229Z,65.37
2018-12-11T10:36:18.060Z,63.68
2018-12-11T10:38:50.739Z,63.42
2018-12-11T10:41:22.779Z,63.12
2018-12-11T10:43:53.660Z,63.63
2018-12-11T10:46:33.749Z,64.54
2018-12-11T10:49:07.908Z,64.02
2018-12-11T10:51:44.007Z,63.72
2018-12-11T10:54:16.173Z,62.19
2018-12-11T10:56:48.362Z,61.78
2018-12-11T10:59:25.492Z,62.33
2018-12-11T11:02:04.211Z,63.29
2018-12-11T11:04:36.579Z,62.49
2018-12-11T11:07:13.687Z,61.37
2018-12-11T11:09:49.871Z,62.34
2018-12-11T11:12:22.367Z,62.30
2018-12-11T11:14:54.449Z,63.67
2018-12-11T11:17:25.691Z,61.91
2018-12-11T11:19:57.986Z,61.87
2018-12-11T11:22:30.455Z,61.61
2018-12-11T11:25:02.768Z,60.74
2018-12-11T11:27:35.759Z,60.51
2018-12-11T11:30:06.914Z,61.29
2018-12-11T11:32:39.356Z,60.28
2018-12-11T11:35:15.429Z,59.60
2018-12-11T11:37:47.462Z,57.41
2018-12-11T11:40:20.126Z,55.93
2018-12-11T11:42:52.409Z,56.48
2018-12-11T11:45:28.635Z,58.18
2018-12-11T11:48:02.445Z,58.53
2018-12-11T11:50:33.091Z,56.84
2018-12-11T11:53:05.935Z,57.36
2018-12-11T11:55:38.389Z,55.29
2018-12-11T11:58:10.595Z,56.04
2018-12-11T12:13:22.601Z,53.99
2018-12-11T12:15:52.998Z,53.03
2018-12-11T12:18:25.267Z,53.79
2018-12-11T12:20:56.396Z,51.57
2018-12-11T12:23:26.551Z,51.62
2018-12-11T12:25:58.671Z,51.83
2018-12-11T12:28:30.950Z,55.42
2018-12-11T12:31:04.425Z,52.89
2018-12-11T12:33:37.018Z,51.96
2018-12-11T12:36:10.101Z,56.52
2018-12-11T12:38:43.066Z,52.95
2018-12-11T12:41:13.891Z,48.42
2018-12-11T12:43:46.076Z,48.67
2018-12-11T12:46:18.554Z,48.57
2018-12-11T12:48:51.059Z,48.39
2018-12-11T12:51:23.421Z,48.21
2018-12-11T12:54:00.383Z,48.03
2018-12-11T12:56:36.543Z,48.69
2018-12-11T12:59:12.643Z,48.77
2018-12-11T13:01:45.571Z,50.17
2018-12-11T13:04:21.809Z,49.09
2018-12-11T13:06:57.895Z,47.92
2018-12-11T13:09:27.978Z,51.75
2018-12-11T13:11:58.074Z,48.00
2018-12-11T13:19:32.241Z,51.45
2018-12-11T13:22:06.208Z,49.37
2018-12-11T13:24:38.620Z,49.94
2018-12-11T13:27:16.459Z,48.68
2018-12-11T13:29:49.261Z,50.54
2018-12-11T13:32:25.289Z,50.96
2018-12-11T13:34:57.467Z,49.76
2018-12-11T13:37:27.739Z,51.04
2018-12-11T13:40:00.589Z,54.43
2018-12-11T13:42:32.643Z,52.27
2018-12-11T13:45:03.941Z,51.26
2018-12-11T13:47:36.599Z,50.09
2018-12-11T13:50:12.737Z,51.04
2018-12-11T13:52:45.178Z,52.34
2018-12-11T13:55:22.127Z,51.55
2018-12-11T13:57:54.376Z,51.75
2018-12-11T14:00:31.522Z,52.27
2018-12-11T14:03:01.712Z,53.13
2018-12-11T14:05:38.863Z,52.60
2018-12-11T14:08:11.839Z,52.20
2018-12-11T14:10:43.945Z,53.25
2018-12-11T14:13:20.894Z,57.13
2018-12-11T14:15:53.183Z,52.98
2018-12-11T14:18:23.551Z,57.21
2018-12-11T14:20:59.786Z,53.98
2018-12-11T14:23:31.913Z,54.07
2018-12-11T14:26:04.837Z,55.84
2018-12-11T14:28:37.205Z,56.85
2018-12-11T14:31:08.248Z,60.06
2018-12-11T14:33:41.371Z,58.99
2018-12-11T14:36:15.282Z,61.97
2018-12-11T14:38:52.782Z,62.77
2018-12-11T14:41:26.050Z,63.46
2018-12-11T14:43:58.880Z,59.87
2018-12-11T14:46:31.022Z,60.94
2018-12-11T14:49:07.347Z,62.51
2018-12-11T14:51:44.339Z,63.13
2018-12-11T14:54:17.365Z,65.84
2018-12-11T14:56:49.847Z,63.69
2018-12-11T14:59:22.059Z,60.87
2018-12-11T15:01:54.322Z,62.30
2018-12-11T15:04:27.353Z,63.52
2018-12-11T15:07:03.639Z,63.89
2018-12-11T15:09:45.876Z,62.87
2018-12-11T15:12:18.770Z,64.20
2018-12-11T15:14:50.935Z,65.11
2018-12-11T15:17:20.927Z,66.10
2018-12-11T15:22:19.920Z,68.06
2018-12-11T15:24:52.317Z,67.57
2018-12-11T15:27:28.391Z,67.50
2018-12-11T15:30:01.605Z,64.01
2018-12-11T15:32:35.016Z,66.77
2018-12-11T15:35:07.388Z,67.16
2018-12-11T15:37:39.596Z,68.64
2018-12-11T15:40:12.406Z,68.81
2018-12-11T15:42:42.610Z,68.68
2018-12-11T15:45:15.986Z,69.51
2018-12-11T15:47:49.073Z,67.49
2018-12-11T15:50:21.396Z,67.71
2018-12-11T15:53:00.474Z,67.91
2018-12-11T15:55:38.074Z,65.76
2018-12-11T15:58:15.198Z,62.57
2018-12-11T16:00:56.160Z,64.00
2018-12-11T16:03:31.785Z,66.08
2018-12-11T16:06:05.534Z,66.92
2018-12-11T16:08:38.744Z,67.94
2018-12-11T16:11:11.772Z,67.79
2018-12-11T16:13:46.207Z,68.96
2018-12-11T16:16:18.760Z,67.81
2018-12-11T16:18:56.505Z,69.65
2018-12-11T16:21:28.612Z,68.51
2018-12-11T16:29:06.534Z,69.49
2018-12-11T16:31:43.935Z,68.38
2018-12-11T16:34:16.850Z,67.12
2018-12-11T16:36:49.369Z,68.20
2018-12-11T16:39:22.658Z,66.11
2018-12-11T16:41:57.628Z,66.61
2018-12-11T16:44:31.028Z,65.44
2018-12-11T16:47:03.689Z,65.34
2018-12-11T16:49:38.231Z,64.87
2018-12-11T16:52:09.654Z,65.55
2018-12-11T16:54:42.803Z,65.71
2018-12-11T16:57:17.839Z,65.93
2018-12-11T16:59:48.354Z,65.60
2018-12-11T17:02:20.687Z,63.85
2018-12-11T17:04:51.609Z,65.82
2018-12-11T17:07:24.370Z,64.31
2018-12-11T17:10:02.445Z,64.63
2018-12-11T17:12:37.393Z,64.69
2018-12-11T17:15:15.716Z,64.40
2018-12-11T17:17:50.168Z,64.85
2018-12-11T17:20:23.957Z,66.32
2018-12-11T17:22:54.757Z,68.37
2018-12-11T17:25:24.807Z,67.18
2018-12-11T17:27:56.844Z,67.53
2018-12-11T17:38:03.497Z,68.49
2018-12-11T17:40:36.527Z,69.22
2018-12-11T17:43:10.709Z,69.65
2018-12-11T17:45:46.127Z,68.59
2018-12-11T17:48:20.784Z,70.06
2018-12-11T17:50:55.284Z,69.45
2018-12-11T17:53:28.550Z,67.93
2018-12-11T17:56:00.924Z,68.06
2018-12-11T17:58:39.436Z,69.16
2018-12-11T18:01:19.793Z,69.85
2018-12-11T18:03:57.802Z,70.66
2018-12-11T18:06:31.390Z,71.23
2018-12-11T18:09:05.298Z,66.89
2018-12-11T18:11:42.915Z,67.80
2018-12-11T18:14:20.605Z,69.31
2018-12-11T18:16:55.333Z,70.38
2018-12-11T18:19:31.030Z,69.47
2018-12-11T18:22:04.022Z,69.08
2018-12-11T18:24:38.946Z,69.54
2018-12-11T18:27:12.002Z,71.40
2018-12-11T18:29:44.102Z,70.30
2018-12-11T18:32:17.212Z,69.57
2018-12-11T18:34:51.435Z,70.25
2018-12-11T18:37:23.845Z,70.86
2018-12-11T18:55:03.344Z,71.88
2018-12-11T18:57:36.745Z,73.08
2018-12-11T19:00:09.769Z,71.96
2018-12-11T19:02:42.855Z,73.30
2018-12-11T19:05:15.657Z,73.26
2018-12-11T19:07:48.772Z,72.82
2018-12-11T19:10:23.573Z,72.98
2018-12-11T19:12:55.689Z,74.36
2018-12-11T19:15:29.655Z,74.10
2018-12-11T19:18:02.797Z,74.15
2018-12-11T19:20:35.768Z,73.81
2018-12-11T19:23:23.735Z,74.31
2018-12-11T19:26:02.955Z,73.36
2018-12-11T19:28:35.115Z,74.40
2018-12-11T19:31:08.461Z,73.86
2018-12-11T19:33:41.068Z,74.97
2018-12-11T19:36:15.186Z,74.32
2018-12-11T19:38:50.944Z,73.81
2018-12-11T19:41:23.987Z,73.09
2018-12-11T19:43:57.236Z,73.76
2018-12-11T19:46:29.564Z,72.05
2018-12-11T19:48:59.745Z,70.70
2018-12-11T19:51:30.925Z,70.38
2018-12-11T20:04:06.961Z,65.50
2018-12-11T20:06:39.932Z,66.63
2018-12-11T20:09:16.904Z,65.50
2018-12-11T20:11:49.840Z,61.26
2018-12-11T20:14:23.882Z,62.47
2018-12-11T20:16:57.150Z,62.04
2018-12-11T20:19:34.201Z,64.29
2018-12-11T20:22:11.135Z,65.89
2018-12-11T20:24:44.249Z,66.85
2018-12-11T20:27:21.299Z,68.62
2018-12-11T20:29:53.748Z,67.74
2018-12-11T20:32:24.855Z,68.08
2018-12-11T20:35:02.749Z,69.39
2018-12-11T20:37:35.948Z,69.59
2018-12-11T20:40:09.004Z,69.12
2018-12-11T20:42:40.046Z,70.58
2018-12-11T20:45:11.232Z,69.50
2018-12-11T20:47:43.513Z,69.44
2018-12-11T20:50:15.839Z,70.48
2018-12-11T20:52:53.104Z,70.23
2018-12-11T20:55:29.259Z,70.95
2018-12-11T20:58:02.391Z,70.97
2018-12-11T21:00:36.910Z,71.01
2018-12-11T21:03:09.771Z,70.92
2018-12-11T21:08:22.357Z,71.09
2018-12-11T21:10:59.434Z,71.29
2018-12-11T21:13:32.643Z,71.79
2018-12-11T21:16:10.962Z,71.39
2018-12-11T21:18:39.982Z,72.87
2018-12-11T21:21:16.545Z,72.65
2018-12-11T21:23:49.084Z,71.90
2018-12-11T21:26:22.125Z,73.78
2018-12-11T21:28:55.379Z,73.30
2018-12-11T21:31:28.468Z,72.98
2018-12-11T21:34:05.518Z,72.94
2018-12-11T21:36:38.692Z,73.65
2018-12-11T21:39:11.920Z,75.15
2018-12-11T21:41:48.169Z,75.02
2018-12-11T21:44:22.688Z,73.87
2018-12-11T21:46:59.619Z,73.58
2018-12-11T21:49:33.011Z,74.11
2018-12-11T21:52:06.178Z,74.67
2018-12-11T21:54:39.724Z,74.24
2018-12-11T21:57:17.745Z,73.59
2018-12-11T21:59:54.455Z,74.24
2018-12-11T22:02:32.009Z,73.58
2018-12-11T22:05:09.156Z,72.15
2018-12-11T22:07:46.807Z,73.77
2018-12-11T22:10:19.942Z,73.45
2018-12-11T22:12:53.426Z,73.49
2018-12-11T22:15:30.277Z,72.32
2018-12-11T22:18:02.686Z,73.61
2018-12-11T22:20:38.792Z,72.95
2018-12-11T22:23:15.985Z,73.03
2018-12-11T22:25:52.057Z,73.89
2018-12-11T22:28:24.206Z,73.16
2018-12-11T22:31:00.350Z,73.16
2018-12-11T22:33:32.931Z,74.00
2018-12-11T22:36:09.971Z,73.59
2018-12-11T22:38:46.139Z,73.83
2018-12-11T22:41:22.380Z,73.42
2018-12-11T22:43:55.331Z,74.16
2018-12-11T22:46:27.642Z,73.65
2018-12-11T22:48:57.782Z,74.55
2018-12-11T22:51:30.103Z,74.58
2018-12-11T22:54:03.267Z,75.13
2018-12-11T22:56:36.011Z,75.86
2018-12-11T22:59:12.253Z,74.32
2018-12-11T23:01:44.724Z,74.92
2018-12-11T23:04:20.757Z,74.86
2018-12-11T23:06:56.789Z,75.70
2018-12-11T23:19:31.532Z,73.32
2018-12-11T23:22:03.701Z,72.25
2018-12-11T23:24:35.939Z,73.71
2018-12-11T23:27:07.962Z,74.34
2018-12-11T23:29:40.097Z,72.42
2018-12-11T23:32:12.414Z,72.65
2018-12-11T23:34:43.421Z,72.59
2018-12-11T23:37:19.620Z,73.37
2018-12-11T23:39:55.890Z,71.97
2018-12-11T23:42:32.136Z,72.69
2018-12-11T23:45:08.769Z,74.36
2018-12-11T23:47:41.332Z,73.19
2018-12-11T23:50:13.436Z,72.59
2018-12-11T23:52:45.655Z,73.00
2018-12-11T23:55:21.856Z,73.35
2018-12-11T23:57:54.113Z,73.56
